createdAt,value
2023-01-28T00:00:03.300Z,0
2023-01-28T00:05:03.352Z,0
2023-01-28T00:10:02.977Z,0
2023-01-28T00:15:02.859Z,0
2023-01-28T00:20:02.870Z,0
2023-01-28T00:25:02.638Z,0
2023-01-28T00:30:03.469Z,0
2023-01-28T00:35:03.098Z,0
2023-01-28T00:40:02.994Z,0
2023-01-28T00:45:02.614Z,0
2023-01-28T00:50:03.102Z,0
2023-01-28T00:55:03.718Z,0
2023-01-28T01:00:02.596Z,0
2023-01-28T01:05:03.276Z,0
2023-01-28T01:10:03.040Z,0
2023-01-28T01:15:03.015Z,0
2023-01-28T01:20:02.491Z,0
2023-01-28T01:25:03.305Z,0
2023-01-28T01:30:02.724Z,0
2023-01-28T01:35:02.869Z,0
2023-01-28T01:40:02.830Z,0
2023-01-28T01:45:02.630Z,0
2023-01-28T01:50:03.256Z,0
2023-01-28T01:55:03.382Z,0
2023-01-28T02:00:02.596Z,0
2023-01-28T02:05:03.249Z,0
2023-01-28T02:10:03.182Z,0
2023-01-28T02:15:02.556Z,0
2023-01-28T02:20:03.296Z,0
2023-01-28T02:25:03.187Z,0
2023-01-28T02:30:02.991Z,0
2023-01-28T02:35:02.908Z,0
2023-01-28T02:40:02.657Z,0
2023-01-28T02:45:02.427Z,0
2023-01-28T02:50:03.283Z,0
2023-01-28T02:55:03.888Z,0
2023-01-28T03:00:02.869Z,0
2023-01-28T03:05:02.532Z,0
2023-01-28T03:10:02.372Z,0
2023-01-28T03:15:03.127Z,0
2023-01-28T03:20:02.910Z,0
2023-01-28T03:25:02.603Z,0
2023-01-28T03:30:02.384Z,0
2023-01-28T03:35:03.065Z,0
2023-01-28T03:40:02.858Z,0
2023-01-28T03:45:02.746Z,0
2023-01-28T03:50:03.324Z,0
2023-01-28T03:55:03.283Z,0
2023-01-28T04:00:02.690Z,0
2023-01-28T04:05:02.974Z,0
2023-01-28T04:10:02.792Z,0
2023-01-28T04:15:02.570Z,0
2023-01-28T04:20:03.318Z,0
2023-01-28T04:25:02.423Z,0
2023-01-28T04:30:03.138Z,0
2023-01-28T04:35:02.884Z,0
2023-01-28T04:40:02.924Z,0
2023-01-28T04:45:02.995Z,0
2023-01-28T04:50:02.610Z,0
2023-01-28T04:55:04.197Z,0
2023-01-28T05:00:03.008Z,0
2023-01-28T05:05:02.993Z,0
2023-01-28T05:10:02.768Z,0
2023-01-28T05:15:02.583Z,0
2023-01-28T05:20:03.473Z,0
2023-01-28T05:25:03.035Z,0
2023-01-28T05:30:02.944Z,0
2023-01-28T05:35:02.635Z,0
2023-01-28T05:40:02.764Z,0
2023-01-28T05:45:02.603Z,0
2023-01-28T05:50:02.495Z,0
2023-01-28T05:55:03.656Z,0
2023-01-28T06:00:02.785Z,0
2023-01-28T06:05:03.171Z,0
2023-01-28T06:10:03.089Z,0
2023-01-28T06:15:02.792Z,0
2023-01-28T06:20:02.654Z,0.34
2023-01-28T06:25:02.547Z,1.02
2023-01-28T06:30:03.312Z,2.49
2023-01-28T06:35:03.090Z,6.11
2023-01-28T06:40:02.761Z,5
2023-01-28T06:45:02.761Z,13.33
2023-01-28T06:50:02.983Z,23.33
2023-01-28T06:55:03.153Z,36.67
2023-01-28T07:00:03.392Z,53.33
2023-01-28T07:05:03.066Z,78.33
2023-01-28T07:10:02.503Z,103.33
2023-01-28T07:15:02.609Z,121.67
2023-01-28T07:20:02.413Z,151.67
2023-01-28T07:25:02.330Z,193.33
2023-01-28T07:30:03.093Z,245
2023-01-28T07:35:03.033Z,313.33
2023-01-28T07:40:03.532Z,376.67
2023-01-28T07:45:03.012Z,433.33
2023-01-28T07:50:02.782Z,526.67
2023-01-28T07:55:03.214Z,648.33
2023-01-28T08:00:02.412Z,656.67
2023-01-28T08:05:03.477Z,806.67
2023-01-28T08:10:02.961Z,901.67
2023-01-28T08:15:02.824Z,1118.33
2023-01-28T08:20:02.520Z,1308.33
2023-01-28T08:25:03.242Z,1431.67
2023-01-28T08:30:03.127Z,1440
2023-01-28T08:35:02.386Z,1605
2023-01-28T08:40:03.291Z,1651.67
2023-01-28T08:45:03.096Z,1676.67
2023-01-28T08:50:02.723Z,1706.67
2023-01-28T08:55:02.939Z,1798.33
2023-01-28T09:00:03.153Z,1910
2023-01-28T09:05:03.098Z,1820
2023-01-28T09:10:03.094Z,1955
2023-01-28T09:15:02.945Z,2051.67
2023-01-28T09:20:02.966Z,2121.67
2023-01-28T09:25:02.763Z,2123.33
2023-01-28T09:30:02.577Z,2206.67
2023-01-28T09:35:03.210Z,2366.67
2023-01-28T09:40:03.255Z,2373.33
2023-01-28T09:45:02.959Z,2468.33
2023-01-28T09:50:02.584Z,2573.33
2023-01-28T09:55:02.997Z,2773.33
2023-01-28T10:00:02.562Z,2711.67
2023-01-28T10:05:02.673Z,2718.33
2023-01-28T10:10:02.470Z,2876.67
2023-01-28T10:15:03.221Z,3205
2023-01-28T10:20:03.020Z,3476.67
2023-01-28T10:25:03.122Z,3778.33
2023-01-28T10:30:02.994Z,3731.67
2023-01-28T10:35:02.827Z,4168.33
2023-01-28T10:40:02.467Z,4308.33
2023-01-28T10:45:03.205Z,5150
2023-01-28T10:50:03.110Z,6258.33
2023-01-28T10:55:03.629Z,7536.67
2023-01-28T11:00:02.759Z,5521.67
2023-01-28T11:05:03.214Z,4793.33
2023-01-28T11:10:03.038Z,4360
2023-01-28T11:15:02.839Z,3608.33
2023-01-28T11:20:02.787Z,3271.67
2023-01-28T11:25:02.403Z,3130
2023-01-28T11:30:03.276Z,2878.33
2023-01-28T11:35:03.112Z,2683.33
2023-01-28T11:40:02.812Z,2343.33
2023-01-28T11:45:02.876Z,2328.33
2023-01-28T11:50:02.637Z,2561.67
2023-01-28T11:55:03.101Z,2890
2023-01-28T12:00:03.377Z,2835
2023-01-28T12:05:03.067Z,2663.33
2023-01-28T12:10:02.830Z,2433.33
2023-01-28T12:15:03.498Z,2535
2023-01-28T12:20:02.525Z,2583.33
2023-01-28T12:25:02.609Z,2450
2023-01-28T12:30:03.230Z,2351.67
2023-01-28T12:35:03.057Z,2270
2023-01-28T12:40:02.747Z,2313.33
2023-01-28T12:45:02.488Z,2181.67
2023-01-28T12:50:03.204Z,2086.67
2023-01-28T12:55:03.377Z,2185
2023-01-28T13:00:02.811Z,2043.33
2023-01-28T13:05:02.523Z,1841.67
2023-01-28T13:10:02.393Z,1716.67
2023-01-28T13:15:02.576Z,1578.33
2023-01-28T13:20:03.306Z,1498.33
2023-01-28T13:25:03.256Z,1386.67
2023-01-28T13:30:03.020Z,1378.33
2023-01-28T13:35:02.846Z,1376.67
2023-01-28T13:40:02.543Z,1463.33
2023-01-28T13:45:03.324Z,1441.67
2023-01-28T13:50:03.142Z,1506.67
2023-01-28T13:55:03.421Z,1711.67
2023-01-28T14:00:02.636Z,1896.67
2023-01-28T14:05:02.661Z,1715
2023-01-28T14:10:03.414Z,1528.33
2023-01-28T14:15:03.129Z,1378.33
2023-01-28T14:20:02.959Z,1306.67
2023-01-28T14:25:02.912Z,1320
2023-01-28T14:30:02.835Z,1285
2023-01-28T14:35:02.463Z,973.33
2023-01-28T14:40:02.393Z,1033.33
2023-01-28T14:45:03.183Z,1086.67
2023-01-28T14:50:02.935Z,1136.67
2023-01-28T14:55:03.386Z,933.33
2023-01-28T15:00:03.326Z,661.67
2023-01-28T15:05:03.085Z,515
2023-01-28T15:10:02.916Z,521.67
2023-01-28T15:15:02.952Z,565
2023-01-28T15:20:03.049Z,421.67
2023-01-28T15:25:02.646Z,378.33
2023-01-28T15:30:02.575Z,313.33
2023-01-28T15:35:03.294Z,216.67
2023-01-28T15:40:03.397Z,178.33
2023-01-28T15:45:02.975Z,123.33
2023-01-28T15:50:03.015Z,81.67
2023-01-28T15:55:03.162Z,53.33
2023-01-28T16:00:03.253Z,35
2023-01-28T16:05:03.159Z,18.33
2023-01-28T16:10:03.107Z,8.33
2023-01-28T16:15:03.455Z,9.73
2023-01-28T16:20:03.042Z,4.3
2023-01-28T16:25:02.815Z,1.92
2023-01-28T16:30:02.574Z,0.79
2023-01-28T16:35:03.476Z,0.23
2023-01-28T16:40:02.910Z,0
2023-01-28T16:45:03.458Z,0
2023-01-28T16:50:03.116Z,0
2023-01-28T16:55:03.496Z,0
2023-01-28T17:00:02.690Z,0
2023-01-28T17:05:03.258Z,0
2023-01-28T17:10:02.742Z,0
2023-01-28T17:15:03.670Z,0
2023-01-28T17:20:03.099Z,0
2023-01-28T17:25:03.146Z,0
2023-01-28T17:30:02.843Z,0
2023-01-28T17:35:02.743Z,0
2023-01-28T17:40:03.286Z,0
2023-01-28T17:45:03.537Z,0
2023-01-28T17:50:02.870Z,0
2023-01-28T17:55:02.972Z,0
2023-01-28T18:00:02.420Z,0
2023-01-28T18:05:02.447Z,0
2023-01-28T18:10:03.392Z,0
2023-01-28T18:15:03.463Z,0
2023-01-28T18:20:02.918Z,0
2023-01-28T18:25:02.578Z,0
2023-01-28T18:30:03.295Z,0
2023-01-28T18:35:03.056Z,0
2023-01-28T18:40:02.921Z,0
2023-01-28T18:45:02.611Z,0
2023-01-28T18:50:02.417Z,0
2023-01-28T18:55:03.949Z,0
2023-01-28T19:00:03.234Z,0
2023-01-28T19:05:03.073Z,0
2023-01-28T19:10:02.423Z,0
2023-01-28T19:15:03.287Z,0
2023-01-28T19:20:03.287Z,0
2023-01-28T19:25:03.231Z,0
2023-01-28T19:30:03.129Z,0
2023-01-28T19:35:02.892Z,0
2023-01-28T19:40:02.866Z,0
2023-01-28T19:45:04.298Z,0
2023-01-28T19:50:02.574Z,0
2023-01-28T19:55:02.850Z,0
2023-01-28T20:00:03.123Z,0
2023-01-28T20:05:02.995Z,0
2023-01-28T20:10:02.834Z,0
2023-01-28T20:15:03.198Z,0
2023-01-28T20:20:02.944Z,0
2023-01-28T20:25:02.717Z,0
2023-01-28T20:30:02.420Z,0
2023-01-28T20:35:03.005Z,0
2023-01-28T20:40:02.762Z,0
2023-01-28T20:45:02.388Z,0
2023-01-28T20:50:02.612Z,0
2023-01-28T20:55:04.014Z,0
2023-01-28T21:00:03.348Z,0
2023-01-28T21:05:03.069Z,0
2023-01-28T21:10:02.852Z,0
2023-01-28T21:15:02.702Z,0
2023-01-28T21:20:02.701Z,0
2023-01-28T21:25:05.692Z,0
2023-01-28T21:30:03.155Z,0
2023-01-28T21:35:02.599Z,0
2023-01-28T21:40:03.135Z,0
2023-01-28T21:45:03.245Z,0
2023-01-28T21:50:02.965Z,0
2023-01-28T21:55:03.499Z,0
2023-01-28T22:00:02.393Z,0
2023-01-28T22:05:03.124Z,0
2023-01-28T22:10:03.119Z,0
2023-01-28T22:15:02.860Z,0
2023-01-28T22:20:02.748Z,0
2023-01-28T22:25:02.427Z,0
2023-01-28T22:30:03.307Z,0
2023-01-28T22:35:02.935Z,0
2023-01-28T22:40:02.651Z,0
2023-01-28T22:45:02.681Z,0
2023-01-28T22:50:02.602Z,0
2023-01-28T22:55:02.640Z,0
2023-01-28T23:00:03.292Z,0
2023-01-28T23:05:03.100Z,0
2023-01-28T23:10:02.850Z,0
2023-01-28T23:15:02.574Z,0
2023-01-28T23:20:02.572Z,0
2023-01-28T23:25:02.684Z,0
2023-01-28T23:30:02.544Z,0
2023-01-28T23:35:03.229Z,0
2023-01-28T23:40:03.212Z,0
2023-01-28T23:45:02.868Z,0
2023-01-28T23:50:02.491Z,0
2023-01-28T23:55:02.627Z,0
